sensor_id;sensor_type;location;lat;lon;timestamp;P1;durP1;ratioP1;P2;durP2;ratioP2
24161;SDS011;12318;51.262;7.066;2023-02-12T00:01:33;108.88;;;57.00;;
24161;SDS011;12318;51.262;7.066;2023-02-12T00:03:59;118.07;;;57.85;;
24161;SDS011;12318;51.262;7.066;2023-02-12T00:06:25;132.45;;;60.20;;
24161;SDS011;12318;51.262;7.066;2023-02-12T00:08:52;96.82;;;54.30;;
24161;SDS011;12318;51.262;7.066;2023-02-12T00:11:20;107.65;;;55.75;;
24161;SDS011;12318;51.262;7.066;2023-02-12T00:13:48;103.68;;;55.45;;
24161;SDS011;12318;51.262;7.066;2023-02-12T00:16:15;101.97;;;54.55;;
24161;SDS011;12318;51.262;7.066;2023-02-12T00:18:43;97.13;;;53.53;;
24161;SDS011;12318;51.262;7.066;2023-02-12T00:21:10;96.60;;;52.00;;
24161;SDS011;12318;51.262;7.066;2023-02-12T00:23:38;89.93;;;49.92;;
24161;SDS011;12318;51.262;7.066;2023-02-12T00:26:12;93.70;;;51.58;;
24161;SDS011;12318;51.262;7.066;2023-02-12T00:28:41;113.55;;;57.50;;
24161;SDS011;12318;51.262;7.066;2023-02-12T00:31:09;87.82;;;49.97;;
24161;SDS011;12318;51.262;7.066;2023-02-12T00:33:37;96.68;;;52.25;;
24161;SDS011;12318;51.262;7.066;2023-02-12T00:36:03;89.28;;;50.65;;
24161;SDS011;12318;51.262;7.066;2023-02-12T00:38:29;86.60;;;46.92;;
24161;SDS011;12318;51.262;7.066;2023-02-12T00:40:55;80.40;;;46.83;;
24161;SDS011;12318;51.262;7.066;2023-02-12T00:43:21;93.57;;;51.42;;
24161;SDS011;12318;51.262;7.066;2023-02-12T00:45:47;114.82;;;56.25;;
24161;SDS011;12318;51.262;7.066;2023-02-12T00:48:13;84.97;;;48.85;;
24161;SDS011;12318;51.262;7.066;2023-02-12T00:50:39;92.55;;;50.17;;
24161;SDS011;12318;51.262;7.066;2023-02-12T00:53:09;123.50;;;58.38;;
24161;SDS011;12318;51.262;7.066;2023-02-12T00:55:35;122.65;;;59.08;;
24161;SDS011;12318;51.262;7.066;2023-02-12T00:58:00;82.32;;;47.72;;
24161;SDS011;12318;51.262;7.066;2023-02-12T01:00:29;90.22;;;50.90;;
24161;SDS011;12318;51.262;7.066;2023-02-12T01:02:54;83.93;;;48.83;;
24161;SDS011;12318;51.262;7.066;2023-02-12T01:05:20;91.22;;;50.67;;
24161;SDS011;12318;51.262;7.066;2023-02-12T01:07:49;88.20;;;49.03;;
24161;SDS011;12318;51.262;7.066;2023-02-12T01:10:16;85.38;;;47.97;;
24161;SDS011;12318;51.262;7.066;2023-02-12T01:12:42;99.07;;;52.50;;
24161;SDS011;12318;51.262;7.066;2023-02-12T01:15:08;87.90;;;48.97;;
24161;SDS011;12318;51.262;7.066;2023-02-12T01:17:34;91.38;;;50.42;;
24161;SDS011;12318;51.262;7.066;2023-02-12T01:20:00;107.07;;;53.80;;
24161;SDS011;12318;51.262;7.066;2023-02-12T01:22:26;91.57;;;50.35;;
24161;SDS011;12318;51.262;7.066;2023-02-12T01:24:52;99.72;;;52.67;;
24161;SDS011;12318;51.262;7.066;2023-02-12T01:27:18;87.18;;;50.50;;
24161;SDS011;12318;51.262;7.066;2023-02-12T01:29:44;81.47;;;48.63;;
24161;SDS011;12318;51.262;7.066;2023-02-12T01:32:10;103.57;;;54.05;;
24161;SDS011;12318;51.262;7.066;2023-02-12T01:34:36;114.65;;;54.72;;
24161;SDS011;12318;51.262;7.066;2023-02-12T01:37:02;83.65;;;47.25;;
24161;SDS011;12318;51.262;7.066;2023-02-12T01:39:28;83.75;;;47.92;;
24161;SDS011;12318;51.262;7.066;2023-02-12T01:41:54;112.57;;;55.63;;
24161;SDS011;12318;51.262;7.066;2023-02-12T01:44:21;91.55;;;50.85;;
24161;SDS011;12318;51.262;7.066;2023-02-12T01:46:53;82.47;;;48.75;;
24161;SDS011;12318;51.262;7.066;2023-02-12T01:49:29;97.55;;;50.50;;
24161;SDS011;12318;51.262;7.066;2023-02-12T01:52:05;93.28;;;51.50;;
24161;SDS011;12318;51.262;7.066;2023-02-12T01:54:36;117.68;;;57.28;;
24161;SDS011;12318;51.262;7.066;2023-02-12T01:57:03;110.70;;;55.13;;
24161;SDS011;12318;51.262;7.066;2023-02-12T01:59:29;115.70;;;57.47;;
24161;SDS011;12318;51.262;7.066;2023-02-12T02:01:56;88.70;;;49.22;;
24161;SDS011;12318;51.262;7.066;2023-02-12T02:04:24;127.18;;;59.55;;
24161;SDS011;12318;51.262;7.066;2023-02-12T02:09:19;85.22;;;48.63;;
24161;SDS011;12318;51.262;7.066;2023-02-12T02:11:45;113.07;;;54.50;;
24161;SDS011;12318;51.262;7.066;2023-02-12T02:14:29;105.53;;;53.28;;
24161;SDS011;12318;51.262;7.066;2023-02-12T02:31:05;110.07;;;53.50;;
24161;SDS011;12318;51.262;7.066;2023-02-12T02:33:54;105.00;;;52.95;;
24161;SDS011;12318;51.262;7.066;2023-02-12T02:36:40;135.23;;;59.10;;
24161;SDS011;12318;51.262;7.066;2023-02-12T02:39:39;119.50;;;58.50;;
24161;SDS011;12318;51.262;7.066;2023-02-12T02:45:01;135.68;;;61.60;;
24161;SDS011;12318;51.262;7.066;2023-02-12T02:47:39;135.65;;;65.47;;
24161;SDS011;12318;51.262;7.066;2023-02-12T02:50:13;145.20;;;65.03;;
24161;SDS011;12318;51.262;7.066;2023-02-12T02:55:37;116.18;;;58.22;;
24161;SDS011;12318;51.262;7.066;2023-02-12T02:58:12;145.68;;;64.82;;
24161;SDS011;12318;51.262;7.066;2023-02-12T03:03:18;173.70;;;68.32;;
24161;SDS011;12318;51.262;7.066;2023-02-12T03:06:01;178.10;;;67.07;;
24161;SDS011;12318;51.262;7.066;2023-02-12T03:08:35;149.88;;;65.20;;
24161;SDS011;12318;51.262;7.066;2023-02-12T03:11:23;148.57;;;65.67;;
24161;SDS011;12318;51.262;7.066;2023-02-12T03:13:56;132.75;;;61.63;;
24161;SDS011;12318;51.262;7.066;2023-02-12T03:19:34;161.80;;;62.47;;
24161;SDS011;12318;51.262;7.066;2023-02-12T03:22:14;153.93;;;66.88;;
24161;SDS011;12318;51.262;7.066;2023-02-12T03:24:47;163.13;;;67.20;;
24161;SDS011;12318;51.262;7.066;2023-02-12T03:27:56;170.40;;;66.75;;
24161;SDS011;12318;51.262;7.066;2023-02-12T03:30:32;163.93;;;67.30;;
24161;SDS011;12318;51.262;7.066;2023-02-12T03:33:28;160.52;;;66.47;;
24161;SDS011;12318;51.262;7.066;2023-02-12T03:36:01;190.15;;;61.80;;
24161;SDS011;12318;51.262;7.066;2023-02-12T03:38:44;102.45;;;52.20;;
24161;SDS011;12318;51.262;7.066;2023-02-12T03:41:24;88.38;;;48.10;;
24161;SDS011;12318;51.262;7.066;2023-02-12T03:46:57;82.25;;;43.47;;
24161;SDS011;12318;51.262;7.066;2023-02-12T03:49:33;68.93;;;37.63;;
24161;SDS011;12318;51.262;7.066;2023-02-12T03:52:21;142.25;;;61.20;;
24161;SDS011;12318;51.262;7.066;2023-02-12T03:54:47;119.13;;;55.08;;
24161;SDS011;12318;51.262;7.066;2023-02-12T03:57:14;122.57;;;55.28;;
24161;SDS011;12318;51.262;7.066;2023-02-12T03:59:46;118.93;;;51.33;;
24161;SDS011;12318;51.262;7.066;2023-02-12T04:02:14;92.32;;;49.85;;
24161;SDS011;12318;51.262;7.066;2023-02-12T04:04:42;121.57;;;56.50;;
24161;SDS011;12318;51.262;7.066;2023-02-12T04:07:09;115.15;;;56.08;;
24161;SDS011;12318;51.262;7.066;2023-02-12T04:09:36;113.38;;;54.70;;
24161;SDS011;12318;51.262;7.066;2023-02-12T04:17:28;73.38;;;43.03;;
24161;SDS011;12318;51.262;7.066;2023-02-12T04:31:12;75.32;;;45.38;;
24161;SDS011;12318;51.262;7.066;2023-02-12T04:33:46;110.03;;;54.13;;
24161;SDS011;12318;51.262;7.066;2023-02-12T04:36:22;119.88;;;57.00;;
24161;SDS011;12318;51.262;7.066;2023-02-12T04:39:02;77.00;;;39.90;;
24161;SDS011;12318;51.262;7.066;2023-02-12T04:41:35;84.47;;;45.65;;
24161;SDS011;12318;51.262;7.066;2023-02-12T04:46:59;82.20;;;47.05;;
24161;SDS011;12318;51.262;7.066;2023-02-12T04:49:25;73.88;;;43.38;;
24161;SDS011;12318;51.262;7.066;2023-02-12T04:51:52;85.82;;;47.58;;
24161;SDS011;12318;51.262;7.066;2023-02-12T04:54:18;77.97;;;45.95;;
24161;SDS011;12318;51.262;7.066;2023-02-12T04:56:45;84.25;;;47.67;;
24161;SDS011;12318;51.262;7.066;2023-02-12T04:59:12;87.70;;;49.65;;
24161;SDS011;12318;51.262;7.066;2023-02-12T05:01:38;113.03;;;53.15;;
24161;SDS011;12318;51.262;7.066;2023-02-12T05:04:05;113.13;;;53.40;;
24161;SDS011;12318;51.262;7.066;2023-02-12T05:06:33;115.78;;;55.15;;
24161;SDS011;12318;51.262;7.066;2023-02-12T05:09:00;128.50;;;57.63;;
24161;SDS011;12318;51.262;7.066;2023-02-12T05:11:26;130.18;;;57.20;;
24161;SDS011;12318;51.262;7.066;2023-02-12T05:13:52;125.70;;;56.97;;
24161;SDS011;12318;51.262;7.066;2023-02-12T05:16:18;90.65;;;50.92;;
24161;SDS011;12318;51.262;7.066;2023-02-12T05:18:45;127.30;;;57.97;;
24161;SDS011;12318;51.262;7.066;2023-02-12T05:21:11;104.05;;;52.78;;
24161;SDS011;12318;51.262;7.066;2023-02-12T05:23:38;113.03;;;53.10;;
24161;SDS011;12318;51.262;7.066;2023-02-12T05:26:06;138.23;;;59.85;;
24161;SDS011;12318;51.262;7.066;2023-02-12T05:28:34;143.13;;;62.58;;
24161;SDS011;12318;51.262;7.066;2023-02-12T05:31:01;126.60;;;58.38;;
24161;SDS011;12318;51.262;7.066;2023-02-12T05:33:29;145.60;;;59.13;;
24161;SDS011;12318;51.262;7.066;2023-02-12T05:35:55;118.57;;;57.13;;
24161;SDS011;12318;51.262;7.066;2023-02-12T05:38:27;105.57;;;52.70;;
24161;SDS011;12318;51.262;7.066;2023-02-12T05:40:52;100.93;;;51.72;;
24161;SDS011;12318;51.262;7.066;2023-02-12T05:43:18;114.97;;;55.33;;
24161;SDS011;12318;51.262;7.066;2023-02-12T05:45:44;111.80;;;54.03;;
24161;SDS011;12318;51.262;7.066;2023-02-12T05:48:10;83.70;;;47.47;;
24161;SDS011;12318;51.262;7.066;2023-02-12T05:50:35;114.15;;;53.92;;
24161;SDS011;12318;51.262;7.066;2023-02-12T05:53:01;85.78;;;48.25;;
24161;SDS011;12318;51.262;7.066;2023-02-12T05:55:27;85.82;;;50.00;;
24161;SDS011;12318;51.262;7.066;2023-02-12T05:57:53;90.68;;;50.47;;
24161;SDS011;12318;51.262;7.066;2023-02-12T06:00:19;97.60;;;51.97;;
24161;SDS011;12318;51.262;7.066;2023-02-12T06:02:45;82.53;;;46.88;;
24161;SDS011;12318;51.262;7.066;2023-02-12T06:05:11;83.72;;;47.92;;
24161;SDS011;12318;51.262;7.066;2023-02-12T06:07:40;76.53;;;46.53;;
24161;SDS011;12318;51.262;7.066;2023-02-12T06:10:06;81.75;;;47.25;;
24161;SDS011;12318;51.262;7.066;2023-02-12T06:12:32;91.47;;;49.65;;
24161;SDS011;12318;51.262;7.066;2023-02-12T06:14:58;103.72;;;53.28;;
24161;SDS011;12318;51.262;7.066;2023-02-12T06:17:25;90.85;;;50.13;;
24161;SDS011;12318;51.262;7.066;2023-02-12T06:19:50;77.85;;;46.53;;
24161;SDS011;12318;51.262;7.066;2023-02-12T06:22:16;105.13;;;52.08;;
24161;SDS011;12318;51.262;7.066;2023-02-12T06:24:42;116.35;;;55.60;;
24161;SDS011;12318;51.262;7.066;2023-02-12T06:27:08;108.40;;;55.17;;
24161;SDS011;12318;51.262;7.066;2023-02-12T06:29:33;129.40;;;57.97;;
24161;SDS011;12318;51.262;7.066;2023-02-12T06:31:59;110.78;;;56.92;;
24161;SDS011;12318;51.262;7.066;2023-02-12T06:34:25;93.63;;;51.72;;
24161;SDS011;12318;51.262;7.066;2023-02-12T06:36:51;116.13;;;57.08;;
24161;SDS011;12318;51.262;7.066;2023-02-12T06:39:17;134.68;;;59.30;;
24161;SDS011;12318;51.262;7.066;2023-02-12T06:41:43;129.82;;;58.13;;
24161;SDS011;12318;51.262;7.066;2023-02-12T06:44:09;102.10;;;53.65;;
24161;SDS011;12318;51.262;7.066;2023-02-12T06:46:36;93.20;;;50.47;;
24161;SDS011;12318;51.262;7.066;2023-02-12T06:49:02;103.30;;;53.33;;
24161;SDS011;12318;51.262;7.066;2023-02-12T06:51:28;83.30;;;48.72;;
24161;SDS011;12318;51.262;7.066;2023-02-12T06:53:55;105.43;;;53.92;;
24161;SDS011;12318;51.262;7.066;2023-02-12T06:56:21;86.85;;;48.97;;
24161;SDS011;12318;51.262;7.066;2023-02-12T06:58:53;138.48;;;57.95;;
24161;SDS011;12318;51.262;7.066;2023-02-12T07:01:22;147.32;;;63.47;;
24161;SDS011;12318;51.262;7.066;2023-02-12T07:03:51;115.25;;;58.97;;
24161;SDS011;12318;51.262;7.066;2023-02-12T07:06:24;103.72;;;53.58;;
24161;SDS011;12318;51.262;7.066;2023-02-12T07:08:51;123.90;;;57.75;;
24161;SDS011;12318;51.262;7.066;2023-02-12T07:11:17;92.15;;;50.17;;
24161;SDS011;12318;51.262;7.066;2023-02-12T07:13:50;97.15;;;51.17;;
24161;SDS011;12318;51.262;7.066;2023-02-12T07:16:16;88.43;;;49.75;;
24161;SDS011;12318;51.262;7.066;2023-02-12T07:18:43;103.72;;;52.42;;
24161;SDS011;12318;51.262;7.066;2023-02-12T07:21:10;106.22;;;52.40;;
24161;SDS011;12318;51.262;7.066;2023-02-12T07:23:38;112.75;;;55.15;;
24161;SDS011;12318;51.262;7.066;2023-02-12T07:26:06;106.70;;;55.40;;
24161;SDS011;12318;51.262;7.066;2023-02-12T07:28:33;117.57;;;55.35;;
24161;SDS011;12318;51.262;7.066;2023-02-12T07:31:00;140.80;;;60.63;;
24161;SDS011;12318;51.262;7.066;2023-02-12T07:33:40;128.57;;;61.08;;
24161;SDS011;12318;51.262;7.066;2023-02-12T07:36:08;97.00;;;53.10;;
24161;SDS011;12318;51.262;7.066;2023-02-12T07:38:36;94.13;;;50.58;;
24161;SDS011;12318;51.262;7.066;2023-02-12T07:43:41;134.85;;;62.45;;
24161;SDS011;12318;51.262;7.066;2023-02-12T07:46:18;115.93;;;59.13;;
24161;SDS011;12318;51.262;7.066;2023-02-12T07:48:46;112.40;;;53.80;;
24161;SDS011;12318;51.262;7.066;2023-02-12T07:51:13;103.05;;;54.78;;
24161;SDS011;12318;51.262;7.066;2023-02-12T07:53:43;106.68;;;54.58;;
24161;SDS011;12318;51.262;7.066;2023-02-12T07:58:35;98.30;;;51.15;;
24161;SDS011;12318;51.262;7.066;2023-02-12T08:01:14;88.45;;;48.35;;
24161;SDS011;12318;51.262;7.066;2023-02-12T08:03:40;78.22;;;45.80;;
24161;SDS011;12318;51.262;7.066;2023-02-12T08:06:11;92.25;;;51.80;;
24161;SDS011;12318;51.262;7.066;2023-02-12T08:08:39;101.22;;;54.13;;
24161;SDS011;12318;51.262;7.066;2023-02-12T08:11:05;106.10;;;54.42;;
24161;SDS011;12318;51.262;7.066;2023-02-12T08:13:32;102.03;;;51.05;;
24161;SDS011;12318;51.262;7.066;2023-02-12T08:16:08;100.25;;;50.50;;
24161;SDS011;12318;51.262;7.066;2023-02-12T08:18:39;81.03;;;47.85;;
24161;SDS011;12318;51.262;7.066;2023-02-12T08:21:12;69.45;;;41.75;;
24161;SDS011;12318;51.262;7.066;2023-02-12T08:23:42;80.22;;;45.53;;
24161;SDS011;12318;51.262;7.066;2023-02-12T08:26:18;80.78;;;47.20;;
24161;SDS011;12318;51.262;7.066;2023-02-12T08:28:54;75.00;;;45.42;;
24161;SDS011;12318;51.262;7.066;2023-02-12T08:31:27;90.88;;;51.00;;
24161;SDS011;12318;51.262;7.066;2023-02-12T08:33:54;102.78;;;54.58;;
24161;SDS011;12318;51.262;7.066;2023-02-12T08:36:24;96.72;;;52.42;;
24161;SDS011;12318;51.262;7.066;2023-02-12T08:38:52;89.65;;;49.97;;
24161;SDS011;12318;51.262;7.066;2023-02-12T08:41:19;79.65;;;45.90;;
24161;SDS011;12318;51.262;7.066;2023-02-12T08:43:50;83.65;;;46.13;;
24161;SDS011;12318;51.262;7.066;2023-02-12T08:46:21;86.75;;;45.08;;
24161;SDS011;12318;51.262;7.066;2023-02-12T08:48:51;71.93;;;44.10;;
24161;SDS011;12318;51.262;7.066;2023-02-12T08:51:19;69.20;;;39.25;;
24161;SDS011;12318;51.262;7.066;2023-02-12T08:53:47;74.63;;;40.63;;
24161;SDS011;12318;51.262;7.066;2023-02-12T08:56:16;65.82;;;38.00;;
24161;SDS011;12318;51.262;7.066;2023-02-12T08:58:43;61.78;;;37.13;;
24161;SDS011;12318;51.262;7.066;2023-02-12T09:01:13;65.25;;;36.17;;
24161;SDS011;12318;51.262;7.066;2023-02-12T09:03:43;59.47;;;36.10;;
24161;SDS011;12318;51.262;7.066;2023-02-12T09:06:09;58.75;;;36.75;;
24161;SDS011;12318;51.262;7.066;2023-02-12T09:08:36;63.38;;;36.88;;
24161;SDS011;12318;51.262;7.066;2023-02-12T09:11:03;64.70;;;37.15;;
24161;SDS011;12318;51.262;7.066;2023-02-12T09:13:30;59.08;;;35.00;;
24161;SDS011;12318;51.262;7.066;2023-02-12T09:15:56;52.30;;;34.03;;
24161;SDS011;12318;51.262;7.066;2023-02-12T09:18:24;52.00;;;33.33;;
24161;SDS011;12318;51.262;7.066;2023-02-12T09:20:50;58.55;;;36.88;;
24161;SDS011;12318;51.262;7.066;2023-02-12T09:23:16;53.15;;;33.88;;
24161;SDS011;12318;51.262;7.066;2023-02-12T09:25:42;53.50;;;35.08;;
24161;SDS011;12318;51.262;7.066;2023-02-12T09:28:10;61.28;;;36.05;;
24161;SDS011;12318;51.262;7.066;2023-02-12T09:30:38;64.95;;;37.85;;
24161;SDS011;12318;51.262;7.066;2023-02-12T09:33:05;60.35;;;38.13;;
24161;SDS011;12318;51.262;7.066;2023-02-12T09:35:35;57.10;;;35.80;;
24161;SDS011;12318;51.262;7.066;2023-02-12T09:38:05;50.03;;;32.17;;
24161;SDS011;12318;51.262;7.066;2023-02-12T09:40:38;48.85;;;31.85;;
24161;SDS011;12318;51.262;7.066;2023-02-12T09:43:16;52.20;;;32.92;;
24161;SDS011;12318;51.262;7.066;2023-02-12T09:45:50;51.65;;;31.63;;
24161;SDS011;12318;51.262;7.066;2023-02-12T09:51:01;36.90;;;24.90;;
24161;SDS011;12318;51.262;7.066;2023-02-12T09:53:31;40.00;;;26.52;;
24161;SDS011;12318;51.262;7.066;2023-02-12T09:56:00;40.28;;;27.30;;
24161;SDS011;12318;51.262;7.066;2023-02-12T09:58:32;41.15;;;26.60;;
24161;SDS011;12318;51.262;7.066;2023-02-12T10:01:20;44.60;;;25.33;;
24161;SDS011;12318;51.262;7.066;2023-02-12T10:03:47;37.08;;;24.52;;
24161;SDS011;12318;51.262;7.066;2023-02-12T10:06:19;36.28;;;24.67;;
24161;SDS011;12318;51.262;7.066;2023-02-12T10:30:01;33.08;;;21.40;;
24161;SDS011;12318;51.262;7.066;2023-02-12T10:32:37;28.10;;;17.83;;
24161;SDS011;12318;51.262;7.066;2023-02-12T10:35:11;30.33;;;18.70;;
24161;SDS011;12318;51.262;7.066;2023-02-12T10:37:44;32.72;;;21.15;;
24161;SDS011;12318;51.262;7.066;2023-02-12T10:40:28;32.45;;;20.83;;
24161;SDS011;12318;51.262;7.066;2023-02-12T10:42:58;36.17;;;21.02;;
24161;SDS011;12318;51.262;7.066;2023-02-12T10:45:28;38.90;;;24.23;;
24161;SDS011;12318;51.262;7.066;2023-02-12T10:48:03;42.17;;;26.42;;
24161;SDS011;12318;51.262;7.066;2023-02-12T10:50:40;43.05;;;27.63;;
24161;SDS011;12318;51.262;7.066;2023-02-12T10:53:28;42.08;;;28.65;;
24161;SDS011;12318;51.262;7.066;2023-02-12T10:56:18;47.55;;;29.08;;
24161;SDS011;12318;51.262;7.066;2023-02-12T10:58:57;43.97;;;28.17;;
24161;SDS011;12318;51.262;7.066;2023-02-12T11:04:18;46.65;;;29.10;;
24161;SDS011;12318;51.262;7.066;2023-02-12T11:06:57;37.45;;;23.33;;
24161;SDS011;12318;51.262;7.066;2023-02-12T11:09:41;37.83;;;23.98;;
24161;SDS011;12318;51.262;7.066;2023-02-12T11:14:47;38.60;;;25.63;;
24161;SDS011;12318;51.262;7.066;2023-02-12T11:17:30;37.25;;;24.15;;
24161;SDS011;12318;51.262;7.066;2023-02-12T11:22:59;36.60;;;24.33;;
24161;SDS011;12318;51.262;7.066;2023-02-12T11:25:28;39.55;;;25.80;;
24161;SDS011;12318;51.262;7.066;2023-02-12T11:33:33;37.10;;;25.15;;
24161;SDS011;12318;51.262;7.066;2023-02-12T11:36:01;36.22;;;25.40;;
24161;SDS011;12318;51.262;7.066;2023-02-12T11:38:39;42.92;;;26.45;;
24161;SDS011;12318;51.262;7.066;2023-02-12T11:41:20;41.47;;;26.65;;
24161;SDS011;12318;51.262;7.066;2023-02-12T11:43:46;44.72;;;28.42;;
24161;SDS011;12318;51.262;7.066;2023-02-12T11:46:17;41.33;;;27.50;;
24161;SDS011;12318;51.262;7.066;2023-02-12T11:48:49;39.53;;;27.10;;
24161;SDS011;12318;51.262;7.066;2023-02-12T11:51:17;39.70;;;26.27;;
24161;SDS011;12318;51.262;7.066;2023-02-12T11:53:48;39.42;;;26.30;;
24161;SDS011;12318;51.262;7.066;2023-02-12T11:56:16;43.95;;;27.33;;
24161;SDS011;12318;51.262;7.066;2023-02-12T11:58:44;35.90;;;26.27;;
24161;SDS011;12318;51.262;7.066;2023-02-12T12:06:36;45.50;;;27.73;;
24161;SDS011;12318;51.262;7.066;2023-02-12T12:11:58;44.45;;;28.02;;
24161;SDS011;12318;51.262;7.066;2023-02-12T12:20:57;48.80;;;30.10;;
24161;SDS011;12318;51.262;7.066;2023-02-12T12:26:35;47.30;;;29.08;;
24161;SDS011;12318;51.262;7.066;2023-02-12T12:29:09;47.88;;;29.60;;
24161;SDS011;12318;51.262;7.066;2023-02-12T12:31:43;45.42;;;29.63;;
24161;SDS011;12318;51.262;7.066;2023-02-12T12:34:16;45.20;;;28.83;;
24161;SDS011;12318;51.262;7.066;2023-02-12T12:39:21;46.35;;;28.98;;
24161;SDS011;12318;51.262;7.066;2023-02-12T12:56:04;53.63;;;31.73;;
24161;SDS011;12318;51.262;7.066;2023-02-12T12:58:57;50.25;;;29.65;;
24161;SDS011;12318;51.262;7.066;2023-02-12T13:02:16;44.92;;;28.17;;
24161;SDS011;12318;51.262;7.066;2023-02-12T13:04:38;43.95;;;27.63;;
24161;SDS011;12318;51.262;7.066;2023-02-12T13:18:44;52.03;;;29.45;;
24161;SDS011;12318;51.262;7.066;2023-02-12T13:27:14;50.88;;;30.02;;
24161;SDS011;12318;51.262;7.066;2023-02-12T13:29:48;52.15;;;27.80;;
24161;SDS011;12318;51.262;7.066;2023-02-12T13:32:31;47.42;;;29.35;;
24161;SDS011;12318;51.262;7.066;2023-02-12T13:35:01;48.30;;;28.48;;
24161;SDS011;12318;51.262;7.066;2023-02-12T13:40:31;46.28;;;29.73;;
24161;SDS011;12318;51.262;7.066;2023-02-12T13:57:27;43.85;;;27.20;;
24161;SDS011;12318;51.262;7.066;2023-02-12T13:59:53;45.35;;;27.60;;
24161;SDS011;12318;51.262;7.066;2023-02-12T14:05:04;48.45;;;27.52;;
24161;SDS011;12318;51.262;7.066;2023-02-12T14:10:20;43.42;;;26.92;;
24161;SDS011;12318;51.262;7.066;2023-02-12T14:12:46;49.22;;;28.05;;
24161;SDS011;12318;51.262;7.066;2023-02-12T14:18:05;44.15;;;27.40;;
24161;SDS011;12318;51.262;7.066;2023-02-12T14:20:34;49.63;;;28.55;;
24161;SDS011;12318;51.262;7.066;2023-02-12T14:25:59;48.83;;;28.15;;
24161;SDS011;12318;51.262;7.066;2023-02-12T14:34:36;44.30;;;26.33;;
24161;SDS011;12318;51.262;7.066;2023-02-12T14:36:43;43.40;;;26.35;;
24161;SDS011;12318;51.262;7.066;2023-02-12T14:41:45;44.70;;;26.45;;
24161;SDS011;12318;51.262;7.066;2023-02-12T14:46:42;46.08;;;26.85;;
24161;SDS011;12318;51.262;7.066;2023-02-12T15:02:26;38.88;;;23.05;;
24161;SDS011;12318;51.262;7.066;2023-02-12T15:05:04;43.13;;;25.60;;
24161;SDS011;12318;51.262;7.066;2023-02-12T15:07:40;41.63;;;25.60;;
24161;SDS011;12318;51.262;7.066;2023-02-12T15:10:19;40.28;;;24.88;;
24161;SDS011;12318;51.262;7.066;2023-02-12T15:15:33;41.77;;;26.57;;
24161;SDS011;12318;51.262;7.066;2023-02-12T15:18:26;43.47;;;25.05;;
24161;SDS011;12318;51.262;7.066;2023-02-12T15:23:36;44.50;;;26.67;;
24161;SDS011;12318;51.262;7.066;2023-02-12T15:26:05;41.33;;;24.90;;
24161;SDS011;12318;51.262;7.066;2023-02-12T15:31:04;45.35;;;26.48;;
24161;SDS011;12318;51.262;7.066;2023-02-12T15:33:35;43.38;;;25.30;;
24161;SDS011;12318;51.262;7.066;2023-02-12T15:36:05;51.47;;;27.80;;
24161;SDS011;12318;51.262;7.066;2023-02-12T15:38:37;48.67;;;29.02;;
24161;SDS011;12318;51.262;7.066;2023-02-12T15:41:21;48.05;;;30.33;;
24161;SDS011;12318;51.262;7.066;2023-02-12T15:43:49;46.35;;;29.38;;
24161;SDS011;12318;51.262;7.066;2023-02-12T15:46:15;54.30;;;32.67;;
24161;SDS011;12318;51.262;7.066;2023-02-12T15:48:42;48.20;;;32.13;;
24161;SDS011;12318;51.262;7.066;2023-02-12T15:53:54;53.65;;;31.73;;
24161;SDS011;12318;51.262;7.066;2023-02-12T15:56:23;53.08;;;33.65;;
24161;SDS011;12318;51.262;7.066;2023-02-12T15:58:53;54.15;;;32.22;;
24161;SDS011;12318;51.262;7.066;2023-02-12T16:01:25;50.45;;;30.27;;
24161;SDS011;12318;51.262;7.066;2023-02-12T16:03:54;51.45;;;29.98;;
24161;SDS011;12318;51.262;7.066;2023-02-12T16:06:25;52.13;;;31.17;;
24161;SDS011;12318;51.262;7.066;2023-02-12T16:09:01;51.55;;;29.23;;
24161;SDS011;12318;51.262;7.066;2023-02-12T16:11:30;68.45;;;41.67;;
24161;SDS011;12318;51.262;7.066;2023-02-12T16:14:03;51.35;;;31.05;;
24161;SDS011;12318;51.262;7.066;2023-02-12T16:16:39;66.95;;;42.47;;
24161;SDS011;12318;51.262;7.066;2023-02-12T16:21:42;51.45;;;29.17;;
24161;SDS011;12318;51.262;7.066;2023-02-12T16:24:24;61.97;;;38.97;;
24161;SDS011;12318;51.262;7.066;2023-02-12T16:29:43;74.95;;;43.25;;
24161;SDS011;12318;51.262;7.066;2023-02-12T16:37:48;67.63;;;41.13;;
24161;SDS011;12318;51.262;7.066;2023-02-12T16:40:19;125.55;;;85.25;;
24161;SDS011;12318;51.262;7.066;2023-02-12T16:47:52;76.70;;;50.95;;
24161;SDS011;12318;51.262;7.066;2023-02-12T16:50:21;83.68;;;54.10;;
24161;SDS011;12318;51.262;7.066;2023-02-12T16:52:50;67.35;;;41.95;;
24161;SDS011;12318;51.262;7.066;2023-02-12T16:57:58;45.72;;;29.25;;
24161;SDS011;12318;51.262;7.066;2023-02-12T17:00:24;45.97;;;28.58;;
24161;SDS011;12318;51.262;7.066;2023-02-12T17:02:53;37.50;;;23.63;;
24161;SDS011;12318;51.262;7.066;2023-02-12T17:05:19;66.93;;;43.03;;
24161;SDS011;12318;51.262;7.066;2023-02-12T17:07:47;83.78;;;52.95;;
24161;SDS011;12318;51.262;7.066;2023-02-12T17:10:14;44.47;;;28.25;;
24161;SDS011;12318;51.262;7.066;2023-02-12T17:12:44;41.38;;;26.48;;
24161;SDS011;12318;51.262;7.066;2023-02-12T17:15:11;69.82;;;44.80;;
24161;SDS011;12318;51.262;7.066;2023-02-12T17:17:59;69.45;;;46.03;;
24161;SDS011;12318;51.262;7.066;2023-02-12T17:20:25;81.40;;;50.38;;
24161;SDS011;12318;51.262;7.066;2023-02-12T17:22:52;42.88;;;26.40;;
24161;SDS011;12318;51.262;7.066;2023-02-12T17:25:20;51.67;;;29.83;;
24161;SDS011;12318;51.262;7.066;2023-02-12T17:27:46;41.03;;;27.17;;
24161;SDS011;12318;51.262;7.066;2023-02-12T17:30:16;28.83;;;18.20;;
24161;SDS011;12318;51.262;7.066;2023-02-12T17:32:43;28.40;;;19.05;;
24161;SDS011;12318;51.262;7.066;2023-02-12T17:35:09;40.38;;;23.00;;
24161;SDS011;12318;51.262;7.066;2023-02-12T17:37:35;32.00;;;20.65;;
24161;SDS011;12318;51.262;7.066;2023-02-12T17:40:01;27.92;;;16.33;;
24161;SDS011;12318;51.262;7.066;2023-02-12T17:42:27;22.95;;;14.32;;
24161;SDS011;12318;51.262;7.066;2023-02-12T17:44:53;20.27;;;13.55;;
24161;SDS011;12318;51.262;7.066;2023-02-12T17:47:18;26.70;;;13.82;;
24161;SDS011;12318;51.262;7.066;2023-02-12T17:49:44;20.40;;;12.85;;
24161;SDS011;12318;51.262;7.066;2023-02-12T17:52:10;18.55;;;12.82;;
24161;SDS011;12318;51.262;7.066;2023-02-12T17:54:36;17.13;;;12.02;;
24161;SDS011;12318;51.262;7.066;2023-02-12T17:57:02;16.02;;;11.00;;
24161;SDS011;12318;51.262;7.066;2023-02-12T17:59:28;15.40;;;9.80;;
24161;SDS011;12318;51.262;7.066;2023-02-12T18:01:54;15.98;;;10.15;;
24161;SDS011;12318;51.262;7.066;2023-02-12T18:04:19;13.18;;;9.43;;
24161;SDS011;12318;51.262;7.066;2023-02-12T18:06:45;12.32;;;9.00;;
24161;SDS011;12318;51.262;7.066;2023-02-12T18:09:12;14.05;;;9.57;;
24161;SDS011;12318;51.262;7.066;2023-02-12T18:11:37;16.63;;;9.18;;
24161;SDS011;12318;51.262;7.066;2023-02-12T18:14:06;13.82;;;8.80;;
24161;SDS011;12318;51.262;7.066;2023-02-12T18:16:32;14.10;;;9.20;;
24161;SDS011;12318;51.262;7.066;2023-02-12T18:19:00;14.20;;;8.63;;
24161;SDS011;12318;51.262;7.066;2023-02-12T18:21:28;14.30;;;9.25;;
24161;SDS011;12318;51.262;7.066;2023-02-12T18:23:54;14.90;;;8.88;;